sensor_id;sensor_type;location;lat;lon;timestamp;P1;durP1;ratioP1;P2;durP2;ratioP2
51664;SDS011;37751;52.408;12.536;2024-03-25T00:00:43;6.17;;;2.50;;
51664;SDS011;37751;52.408;12.536;2024-03-25T00:03:13;3.83;;;2.10;;
51664;SDS011;37751;52.408;12.536;2024-03-25T00:05:40;6.33;;;2.20;;
51664;SDS011;37751;52.408;12.536;2024-03-25T00:08:07;3.87;;;2.33;;
51664;SDS011;37751;52.408;12.536;2024-03-25T00:10:34;3.67;;;2.20;;
51664;SDS011;37751;52.408;12.536;2024-03-25T00:13:02;5.07;;;2.50;;
51664;SDS011;37751;52.408;12.536;2024-03-25T00:15:29;4.20;;;2.20;;
51664;SDS011;37751;52.408;12.536;2024-03-25T00:18:03;5.37;;;2.03;;
51664;SDS011;37751;52.408;12.536;2024-03-25T00:20:41;8.23;;;3.43;;
51664;SDS011;37751;52.408;12.536;2024-03-25T00:23:08;4.67;;;2.70;;
51664;SDS011;37751;52.408;12.536;2024-03-25T00:25:35;8.90;;;3.10;;
51664;SDS011;37751;52.408;12.536;2024-03-25T00:28:02;9.20;;;2.63;;
51664;SDS011;37751;52.408;12.536;2024-03-25T00:30:29;5.63;;;2.13;;
51664;SDS011;37751;52.408;12.536;2024-03-25T00:32:59;4.63;;;2.77;;
51664;SDS011;37751;52.408;12.536;2024-03-25T00:35:36;7.37;;;3.70;;
51664;SDS011;37751;52.408;12.536;2024-03-25T00:38:05;5.00;;;3.03;;
51664;SDS011;37751;52.408;12.536;2024-03-25T00:40:32;7.43;;;3.57;;
51664;SDS011;37751;52.408;12.536;2024-03-25T00:42:59;8.57;;;3.60;;
51664;SDS011;37751;52.408;12.536;2024-03-25T00:45:26;12.23;;;4.50;;
51664;SDS011;37751;52.408;12.536;2024-03-25T00:47:56;8.60;;;4.03;;
51664;SDS011;37751;52.408;12.536;2024-03-25T00:50:23;7.93;;;3.83;;
51664;SDS011;37751;52.408;12.536;2024-03-25T00:52:53;13.37;;;4.80;;
51664;SDS011;37751;52.408;12.536;2024-03-25T00:55:20;10.80;;;3.90;;
51664;SDS011;37751;52.408;12.536;2024-03-25T00:57:48;9.33;;;4.00;;
51664;SDS011;37751;52.408;12.536;2024-03-25T01:00:15;7.77;;;3.70;;
51664;SDS011;37751;52.408;12.536;2024-03-25T01:02:43;7.37;;;4.00;;
51664;SDS011;37751;52.408;12.536;2024-03-25T01:05:10;7.80;;;3.83;;
51664;SDS011;37751;52.408;12.536;2024-03-25T01:07:37;7.57;;;3.20;;
51664;SDS011;37751;52.408;12.536;2024-03-25T01:10:07;9.03;;;3.73;;
51664;SDS011;37751;52.408;12.536;2024-03-25T01:12:37;5.90;;;3.53;;
51664;SDS011;37751;52.408;12.536;2024-03-25T01:15:04;7.50;;;3.83;;
51664;SDS011;37751;52.408;12.536;2024-03-25T01:17:33;5.83;;;3.33;;
51664;SDS011;37751;52.408;12.536;2024-03-25T01:20:00;6.47;;;3.30;;
51664;SDS011;37751;52.408;12.536;2024-03-25T01:22:27;6.60;;;3.37;;
51664;SDS011;37751;52.408;12.536;2024-03-25T01:24:57;5.03;;;2.70;;
51664;SDS011;37751;52.408;12.536;2024-03-25T01:27:27;3.73;;;1.90;;
51664;SDS011;37751;52.408;12.536;2024-03-25T01:29:54;3.33;;;1.93;;
51664;SDS011;37751;52.408;12.536;2024-03-25T01:32:23;6.20;;;2.53;;
51664;SDS011;37751;52.408;12.536;2024-03-25T01:34:50;3.30;;;1.70;;
51664;SDS011;37751;52.408;12.536;2024-03-25T01:37:17;3.33;;;1.80;;
51664;SDS011;37751;52.408;12.536;2024-03-25T01:39:44;5.43;;;1.60;;
51664;SDS011;37751;52.408;12.536;2024-03-25T01:42:11;1.90;;;1.33;;
51664;SDS011;37751;52.408;12.536;2024-03-25T01:44:42;2.13;;;1.40;;
51664;SDS011;37751;52.408;12.536;2024-03-25T01:47:09;1.70;;;1.20;;
51664;SDS011;37751;52.408;12.536;2024-03-25T01:49:36;2.50;;;1.30;;
51664;SDS011;37751;52.408;12.536;2024-03-25T01:52:03;3.23;;;1.30;;
51664;SDS011;37751;52.408;12.536;2024-03-25T01:54:30;3.30;;;1.37;;
51664;SDS011;37751;52.408;12.536;2024-03-25T01:56:57;2.30;;;1.47;;
51664;SDS011;37751;52.408;12.536;2024-03-25T01:59:24;2.70;;;1.17;;
51664;SDS011;37751;52.408;12.536;2024-03-25T02:01:55;8.00;;;1.30;;
51664;SDS011;37751;52.408;12.536;2024-03-25T02:04:22;1.83;;;1.33;;
51664;SDS011;37751;52.408;12.536;2024-03-25T02:06:49;3.50;;;1.60;;
51664;SDS011;37751;52.408;12.536;2024-03-25T02:09:51;3.60;;;1.60;;
51664;SDS011;37751;52.408;12.536;2024-03-25T02:12:19;1.90;;;1.27;;
51664;SDS011;37751;52.408;12.536;2024-03-25T02:14:56;1.87;;;1.40;;
51664;SDS011;37751;52.408;12.536;2024-03-25T02:17:37;4.00;;;1.40;;
51664;SDS011;37751;52.408;12.536;2024-03-25T02:20:05;2.77;;;1.40;;
51664;SDS011;37751;52.408;12.536;2024-03-25T02:22:37;5.67;;;2.40;;
51664;SDS011;37751;52.408;12.536;2024-03-25T02:25:05;4.87;;;1.60;;
51664;SDS011;37751;52.408;12.536;2024-03-25T02:27:40;4.40;;;1.80;;
51664;SDS011;37751;52.408;12.536;2024-03-25T02:30:08;4.67;;;2.00;;
51664;SDS011;37751;52.408;12.536;2024-03-25T02:32:36;3.93;;;2.13;;
51664;SDS011;37751;52.408;12.536;2024-03-25T02:35:07;7.00;;;2.23;;
51664;SDS011;37751;52.408;12.536;2024-03-25T02:37:50;7.10;;;2.47;;
51664;SDS011;37751;52.408;12.536;2024-03-25T02:40:20;4.23;;;1.90;;
51664;SDS011;37751;52.408;12.536;2024-03-25T02:42:51;8.10;;;2.70;;
51664;SDS011;37751;52.408;12.536;2024-03-25T02:45:18;6.17;;;2.03;;
51664;SDS011;37751;52.408;12.536;2024-03-25T02:47:48;6.87;;;2.10;;
51664;SDS011;37751;52.408;12.536;2024-03-25T02:50:16;5.17;;;2.17;;
51664;SDS011;37751;52.408;12.536;2024-03-25T02:52:43;8.63;;;2.40;;
51664;SDS011;37751;52.408;12.536;2024-03-25T02:55:10;5.20;;;2.10;;
51664;SDS011;37751;52.408;12.536;2024-03-25T02:57:37;6.93;;;2.67;;
51664;SDS011;37751;52.408;12.536;2024-03-25T03:00:10;5.53;;;2.23;;
51664;SDS011;37751;52.408;12.536;2024-03-25T03:02:39;11.87;;;2.90;;
51664;SDS011;37751;52.408;12.536;2024-03-25T03:05:06;7.63;;;2.43;;
51664;SDS011;37751;52.408;12.536;2024-03-25T03:07:44;7.87;;;2.63;;
51664;SDS011;37751;52.408;12.536;2024-03-25T03:10:14;11.27;;;2.80;;
51664;SDS011;37751;52.408;12.536;2024-03-25T03:12:45;9.10;;;2.57;;
51664;SDS011;37751;52.408;12.536;2024-03-25T03:15:18;5.90;;;1.90;;
51664;SDS011;37751;52.408;12.536;2024-03-25T03:17:55;12.27;;;2.60;;
51664;SDS011;37751;52.408;12.536;2024-03-25T03:20:25;7.20;;;2.53;;
51664;SDS011;37751;52.408;12.536;2024-03-25T03:23:01;7.57;;;2.40;;
51664;SDS011;37751;52.408;12.536;2024-03-25T03:25:28;8.43;;;3.07;;
51664;SDS011;37751;52.408;12.536;2024-03-25T03:28:19;10.30;;;2.77;;
51664;SDS011;37751;52.408;12.536;2024-03-25T03:30:48;9.17;;;2.40;;
51664;SDS011;37751;52.408;12.536;2024-03-25T03:33:15;11.70;;;2.20;;
51664;SDS011;37751;52.408;12.536;2024-03-25T03:35:42;5.43;;;2.43;;
51664;SDS011;37751;52.408;12.536;2024-03-25T03:38:30;7.67;;;2.87;;
51664;SDS011;37751;52.408;12.536;2024-03-25T03:41:06;6.27;;;3.10;;
51664;SDS011;37751;52.408;12.536;2024-03-25T03:43:33;9.23;;;2.63;;
51664;SDS011;37751;52.408;12.536;2024-03-25T03:46:16;10.73;;;2.60;;
51664;SDS011;37751;52.408;12.536;2024-03-25T03:48:43;9.87;;;2.90;;
51664;SDS011;37751;52.408;12.536;2024-03-25T03:51:11;5.60;;;2.80;;
51664;SDS011;37751;52.408;12.536;2024-03-25T03:53:38;8.80;;;3.00;;
51664;SDS011;37751;52.408;12.536;2024-03-25T03:56:05;7.07;;;2.50;;
51664;SDS011;37751;52.408;12.536;2024-03-25T03:58:35;8.73;;;3.10;;
51664;SDS011;37751;52.408;12.536;2024-03-25T04:01:02;6.57;;;2.13;;
51664;SDS011;37751;52.408;12.536;2024-03-25T04:03:32;6.77;;;1.60;;
51664;SDS011;37751;52.408;12.536;2024-03-25T04:06:07;5.43;;;2.47;;
51664;SDS011;37751;52.408;12.536;2024-03-25T04:08:39;8.47;;;2.60;;
51664;SDS011;37751;52.408;12.536;2024-03-25T04:11:14;7.60;;;2.40;;
51664;SDS011;37751;52.408;12.536;2024-03-25T04:13:44;6.03;;;2.77;;
51664;SDS011;37751;52.408;12.536;2024-03-25T04:16:12;7.37;;;2.67;;
51664;SDS011;37751;52.408;12.536;2024-03-25T04:18:42;7.10;;;2.40;;
51664;SDS011;37751;52.408;12.536;2024-03-25T04:21:11;8.27;;;2.23;;
51664;SDS011;37751;52.408;12.536;2024-03-25T04:23:38;7.80;;;2.23;;
51664;SDS011;37751;52.408;12.536;2024-03-25T04:26:05;7.73;;;2.60;;
51664;SDS011;37751;52.408;12.536;2024-03-25T04:28:32;7.10;;;2.07;;
51664;SDS011;37751;52.408;12.536;2024-03-25T04:31:00;4.07;;;2.00;;
51664;SDS011;37751;52.408;12.536;2024-03-25T04:33:27;12.03;;;2.17;;
51664;SDS011;37751;52.408;12.536;2024-03-25T04:35:56;2.77;;;1.80;;
51664;SDS011;37751;52.408;12.536;2024-03-25T04:38:23;8.60;;;2.23;;
51664;SDS011;37751;52.408;12.536;2024-03-25T04:41:11;4.43;;;1.70;;
51664;SDS011;37751;52.408;12.536;2024-03-25T04:43:37;8.43;;;2.37;;
51664;SDS011;37751;52.408;12.536;2024-03-25T04:46:04;6.63;;;2.23;;
51664;SDS011;37751;52.408;12.536;2024-03-25T04:48:31;11.00;;;2.30;;
51664;SDS011;37751;52.408;12.536;2024-03-25T04:51:09;5.03;;;2.10;;
51664;SDS011;37751;52.408;12.536;2024-03-25T04:53:36;12.33;;;2.37;;
51664;SDS011;37751;52.408;12.536;2024-03-25T04:56:05;15.03;;;2.30;;
51664;SDS011;37751;52.408;12.536;2024-03-25T04:58:36;5.37;;;2.20;;
51664;SDS011;37751;52.408;12.536;2024-03-25T05:01:03;4.07;;;2.20;;
51664;SDS011;37751;52.408;12.536;2024-03-25T05:03:30;8.33;;;2.03;;
51664;SDS011;37751;52.408;12.536;2024-03-25T05:05:57;10.10;;;2.30;;
51664;SDS011;37751;52.408;12.536;2024-03-25T05:08:33;6.93;;;2.00;;
51664;SDS011;37751;52.408;12.536;2024-03-25T05:11:08;7.00;;;2.33;;
51664;SDS011;37751;52.408;12.536;2024-03-25T05:13:36;14.60;;;2.67;;
51664;SDS011;37751;52.408;12.536;2024-03-25T05:16:17;9.63;;;2.97;;
51664;SDS011;37751;52.408;12.536;2024-03-25T05:19:07;6.40;;;2.40;;
51664;SDS011;37751;52.408;12.536;2024-03-25T05:22:07;8.77;;;2.33;;
51664;SDS011;37751;52.408;12.536;2024-03-25T05:24:37;11.13;;;2.90;;
51664;SDS011;37751;52.408;12.536;2024-03-25T05:27:15;5.53;;;1.90;;
51664;SDS011;37751;52.408;12.536;2024-03-25T05:29:42;8.77;;;2.03;;
51664;SDS011;37751;52.408;12.536;2024-03-25T05:32:14;5.73;;;1.70;;
51664;SDS011;37751;52.408;12.536;2024-03-25T05:34:41;6.23;;;2.40;;
51664;SDS011;37751;52.408;12.536;2024-03-25T05:37:43;9.27;;;2.37;;
51664;SDS011;37751;52.408;12.536;2024-03-25T05:40:14;5.93;;;2.67;;
51664;SDS011;37751;52.408;12.536;2024-03-25T05:42:44;10.50;;;2.63;;
51664;SDS011;37751;52.408;12.536;2024-03-25T05:45:11;7.20;;;2.23;;
51664;SDS011;37751;52.408;12.536;2024-03-25T05:47:45;5.17;;;2.20;;
51664;SDS011;37751;52.408;12.536;2024-03-25T05:50:13;12.30;;;2.80;;
51664;SDS011;37751;52.408;12.536;2024-03-25T05:52:39;5.60;;;2.43;;
51664;SDS011;37751;52.408;12.536;2024-03-25T05:55:08;8.60;;;2.27;;
51664;SDS011;37751;52.408;12.536;2024-03-25T05:57:38;10.03;;;2.60;;
51664;SDS011;37751;52.408;12.536;2024-03-25T06:00:06;5.67;;;2.90;;
51664;SDS011;37751;52.408;12.536;2024-03-25T06:02:38;3.73;;;2.10;;
51664;SDS011;37751;52.408;12.536;2024-03-25T06:05:05;6.00;;;2.17;;
51664;SDS011;37751;52.408;12.536;2024-03-25T06:07:32;7.30;;;2.70;;
51664;SDS011;37751;52.408;12.536;2024-03-25T06:09:59;4.23;;;2.30;;
51664;SDS011;37751;52.408;12.536;2024-03-25T06:12:27;6.63;;;2.67;;
51664;SDS011;37751;52.408;12.536;2024-03-25T06:14:57;7.57;;;2.83;;
51664;SDS011;37751;52.408;12.536;2024-03-25T06:17:26;7.70;;;2.67;;
51664;SDS011;37751;52.408;12.536;2024-03-25T06:19:53;5.43;;;2.00;;
51664;SDS011;37751;52.408;12.536;2024-03-25T06:22:20;3.80;;;2.10;;
51664;SDS011;37751;52.408;12.536;2024-03-25T06:24:47;6.97;;;2.50;;
51664;SDS011;37751;52.408;12.536;2024-03-25T06:27:14;5.23;;;2.50;;
51664;SDS011;37751;52.408;12.536;2024-03-25T06:29:41;6.60;;;2.47;;
51664;SDS011;37751;52.408;12.536;2024-03-25T06:32:11;4.63;;;2.70;;
51664;SDS011;37751;52.408;12.536;2024-03-25T06:34:52;8.83;;;2.83;;
51664;SDS011;37751;52.408;12.536;2024-03-25T06:37:19;3.27;;;2.00;;
51664;SDS011;37751;52.408;12.536;2024-03-25T06:39:46;5.97;;;2.70;;
51664;SDS011;37751;52.408;12.536;2024-03-25T06:42:13;9.63;;;2.70;;
51664;SDS011;37751;52.408;12.536;2024-03-25T06:44:43;6.20;;;2.53;;
51664;SDS011;37751;52.408;12.536;2024-03-25T06:47:13;5.07;;;2.70;;
51664;SDS011;37751;52.408;12.536;2024-03-25T06:49:41;6.47;;;2.83;;
51664;SDS011;37751;52.408;12.536;2024-03-25T06:52:09;7.33;;;2.47;;
51664;SDS011;37751;52.408;12.536;2024-03-25T06:54:37;4.67;;;2.07;;
51664;SDS011;37751;52.408;12.536;2024-03-25T06:57:04;7.90;;;2.53;;
51664;SDS011;37751;52.408;12.536;2024-03-25T06:59:31;7.10;;;2.67;;
51664;SDS011;37751;52.408;12.536;2024-03-25T07:01:59;12.30;;;3.30;;
51664;SDS011;37751;52.408;12.536;2024-03-25T07:04:29;4.27;;;2.07;;
51664;SDS011;37751;52.408;12.536;2024-03-25T07:06:57;5.27;;;1.87;;
51664;SDS011;37751;52.408;12.536;2024-03-25T07:09:24;4.33;;;2.07;;
51664;SDS011;37751;52.408;12.536;2024-03-25T07:11:51;4.63;;;1.80;;
51664;SDS011;37751;52.408;12.536;2024-03-25T07:14:28;6.73;;;1.90;;
51664;SDS011;37751;52.408;12.536;2024-03-25T07:16:58;5.70;;;2.40;;
51664;SDS011;37751;52.408;12.536;2024-03-25T07:19:29;4.93;;;2.20;;
51664;SDS011;37751;52.408;12.536;2024-03-25T07:21:56;3.80;;;1.90;;
51664;SDS011;37751;52.408;12.536;2024-03-25T07:24:33;7.70;;;2.50;;
51664;SDS011;37751;52.408;12.536;2024-03-25T07:27:03;6.67;;;2.00;;
51664;SDS011;37751;52.408;12.536;2024-03-25T07:29:31;7.67;;;2.60;;
51664;SDS011;37751;52.408;12.536;2024-03-25T07:31:58;6.47;;;2.27;;
51664;SDS011;37751;52.408;12.536;2024-03-25T07:34:26;6.90;;;2.50;;
51664;SDS011;37751;52.408;12.536;2024-03-25T07:36:56;6.50;;;2.63;;
51664;SDS011;37751;52.408;12.536;2024-03-25T07:39:26;5.50;;;2.27;;
51664;SDS011;37751;52.408;12.536;2024-03-25T07:41:53;5.03;;;1.87;;
51664;SDS011;37751;52.408;12.536;2024-03-25T07:44:29;3.63;;;1.40;;
51664;SDS011;37751;52.408;12.536;2024-03-25T07:46:56;9.23;;;2.23;;
51664;SDS011;37751;52.408;12.536;2024-03-25T07:49:33;3.77;;;1.70;;
51664;SDS011;37751;52.408;12.536;2024-03-25T07:52:01;10.83;;;3.10;;
51664;SDS011;37751;52.408;12.536;2024-03-25T07:54:32;5.67;;;2.40;;
51664;SDS011;37751;52.408;12.536;2024-03-25T07:56:59;20.17;;;2.40;;
51664;SDS011;37751;52.408;12.536;2024-03-25T07:59:27;4.43;;;2.30;;
51664;SDS011;37751;52.408;12.536;2024-03-25T08:01:55;8.60;;;2.53;;
51664;SDS011;37751;52.408;12.536;2024-03-25T08:04:22;6.43;;;2.50;;
51664;SDS011;37751;52.408;12.536;2024-03-25T08:06:53;3.67;;;2.00;;
51664;SDS011;37751;52.408;12.536;2024-03-25T08:09:21;3.93;;;1.80;;
51664;SDS011;37751;52.408;12.536;2024-03-25T08:11:52;9.90;;;1.90;;
51664;SDS011;37751;52.408;12.536;2024-03-25T08:14:32;8.60;;;2.40;;
51664;SDS011;37751;52.408;12.536;2024-03-25T08:17:05;4.30;;;2.40;;
51664;SDS011;37751;52.408;12.536;2024-03-25T08:19:41;7.03;;;2.07;;
51664;SDS011;37751;52.408;12.536;2024-03-25T08:22:24;4.53;;;2.40;;
51664;SDS011;37751;52.408;12.536;2024-03-25T08:24:51;7.50;;;2.50;;
51664;SDS011;37751;52.408;12.536;2024-03-25T08:27:19;4.23;;;1.80;;
51664;SDS011;37751;52.408;12.536;2024-03-25T08:29:46;4.30;;;2.47;;
51664;SDS011;37751;52.408;12.536;2024-03-25T08:32:16;4.00;;;1.67;;
51664;SDS011;37751;52.408;12.536;2024-03-25T08:34:47;11.77;;;2.50;;
51664;SDS011;37751;52.408;12.536;2024-03-25T08:37:14;7.00;;;2.27;;
51664;SDS011;37751;52.408;12.536;2024-03-25T08:39:51;5.80;;;2.33;;
51664;SDS011;37751;52.408;12.536;2024-03-25T08:42:19;8.23;;;2.87;;
51664;SDS011;37751;52.408;12.536;2024-03-25T08:44:45;5.60;;;2.07;;
51664;SDS011;37751;52.408;12.536;2024-03-25T08:47:13;8.93;;;2.60;;
51664;SDS011;37751;52.408;12.536;2024-03-25T08:49:39;7.70;;;2.17;;
51664;SDS011;37751;52.408;12.536;2024-03-25T08:52:07;28.47;;;3.47;;
51664;SDS011;37751;52.408;12.536;2024-03-25T08:54:37;14.67;;;3.83;;
51664;SDS011;37751;52.408;12.536;2024-03-25T08:57:06;31.07;;;3.97;;
51664;SDS011;37751;52.408;12.536;2024-03-25T08:59:34;7.40;;;2.33;;
51664;SDS011;37751;52.408;12.536;2024-03-25T09:02:01;6.73;;;2.40;;
51664;SDS011;37751;52.408;12.536;2024-03-25T09:04:28;5.27;;;2.23;;
51664;SDS011;37751;52.408;12.536;2024-03-25T09:06:56;10.60;;;2.77;;
51664;SDS011;37751;52.408;12.536;2024-03-25T09:09:24;4.70;;;2.23;;
51664;SDS011;37751;52.408;12.536;2024-03-25T09:12:09;7.87;;;2.43;;
51664;SDS011;37751;52.408;12.536;2024-03-25T09:14:37;4.30;;;2.17;;
51664;SDS011;37751;52.408;12.536;2024-03-25T09:17:05;8.87;;;2.57;;
51664;SDS011;37751;52.408;12.536;2024-03-25T09:19:32;5.20;;;2.13;;
51664;SDS011;37751;52.408;12.536;2024-03-25T09:22:00;4.53;;;2.23;;
51664;SDS011;37751;52.408;12.536;2024-03-25T09:24:27;4.87;;;2.33;;
51664;SDS011;37751;52.408;12.536;2024-03-25T09:26:54;4.07;;;2.00;;
51664;SDS011;37751;52.408;12.536;2024-03-25T09:29:24;4.17;;;1.80;;
51664;SDS011;37751;52.408;12.536;2024-03-25T09:31:54;5.43;;;2.10;;
51664;SDS011;37751;52.408;12.536;2024-03-25T09:34:21;8.27;;;2.40;;
51664;SDS011;37751;52.408;12.536;2024-03-25T09:36:48;4.30;;;1.80;;
51664;SDS011;37751;52.408;12.536;2024-03-25T09:39:17;5.87;;;2.40;;
51664;SDS011;37751;52.408;12.536;2024-03-25T09:41:44;5.97;;;1.53;;
51664;SDS011;37751;52.408;12.536;2024-03-25T09:44:13;5.70;;;2.00;;
51664;SDS011;37751;52.408;12.536;2024-03-25T09:46:43;2.67;;;1.70;;
51664;SDS011;37751;52.408;12.536;2024-03-25T09:49:09;5.13;;;1.60;;
51664;SDS011;37751;52.408;12.536;2024-03-25T09:51:36;2.03;;;1.63;;
51664;SDS011;37751;52.408;12.536;2024-03-25T09:54:03;9.40;;;2.10;;
51664;SDS011;37751;52.408;12.536;2024-03-25T09:56:31;6.30;;;2.17;;
51664;SDS011;37751;52.408;12.536;2024-03-25T09:58:58;4.23;;;1.90;;
51664;SDS011;37751;52.408;12.536;2024-03-25T10:01:26;3.90;;;2.10;;
51664;SDS011;37751;52.408;12.536;2024-03-25T10:03:55;3.13;;;1.60;;
51664;SDS011;37751;52.408;12.536;2024-03-25T10:06:22;7.67;;;1.80;;
51664;SDS011;37751;52.408;12.536;2024-03-25T10:08:52;2.53;;;1.50;;
51664;SDS011;37751;52.408;12.536;2024-03-25T10:11:20;4.53;;;1.70;;
51664;SDS011;37751;52.408;12.536;2024-03-25T10:13:46;2.97;;;1.47;;
51664;SDS011;37751;52.408;12.536;2024-03-25T10:16:13;3.23;;;1.43;;
51664;SDS011;37751;52.408;12.536;2024-03-25T10:18:40;4.40;;;1.53;;
51664;SDS011;37751;52.408;12.536;2024-03-25T10:21:12;4.67;;;1.80;;
51664;SDS011;37751;52.408;12.536;2024-03-25T10:23:39;4.13;;;1.13;;
51664;SDS011;37751;52.408;12.536;2024-03-25T10:26:08;6.80;;;2.43;;
51664;SDS011;37751;52.408;12.536;2024-03-25T10:28:34;3.83;;;1.47;;
51664;SDS011;37751;52.408;12.536;2024-03-25T10:31:04;3.70;;;1.30;;
51664;SDS011;37751;52.408;12.536;2024-03-25T10:33:32;6.57;;;1.67;;
51664;SDS011;37751;52.408;12.536;2024-03-25T10:35:59;5.87;;;1.30;;
51664;SDS011;37751;52.408;12.536;2024-03-25T10:38:31;2.85;;;1.48;;
51664;SDS011;37751;52.408;12.536;2024-03-25T10:40:59;2.10;;;1.17;;
51664;SDS011;37751;52.408;12.536;2024-03-25T10:43:26;3.27;;;0.97;;
51664;SDS011;37751;52.408;12.536;2024-03-25T10:45:57;4.80;;;1.27;;
51664;SDS011;37751;52.408;12.536;2024-03-25T10:48:25;1.52;;;1.10;;
51664;SDS011;37751;52.408;12.536;2024-03-25T10:50:58;3.75;;;1.25;;
51664;SDS011;37751;52.408;12.536;2024-03-25T10:53:27;2.60;;;1.30;;
51664;SDS011;37751;52.408;12.536;2024-03-25T10:55:58;4.82;;;1.00;;
51664;SDS011;37751;52.408;12.536;2024-03-25T10:58:25;3.30;;;1.00;;
51664;SDS011;37751;52.408;12.536;2024-03-25T11:00:56;4.68;;;1.10;;
51664;SDS011;37751;52.408;12.536;2024-03-25T11:03:25;3.80;;;0.70;;
51664;SDS011;37751;52.408;12.536;2024-03-25T11:05:53;2.53;;;0.80;;
51664;SDS011;37751;52.408;12.536;2024-03-25T11:08:30;3.38;;;1.17;;
51664;SDS011;37751;52.408;12.536;2024-03-25T11:11:00;4.22;;;0.73;;
51664;SDS011;37751;52.408;12.536;2024-03-25T11:13:27;1.70;;;0.70;;
51664;SDS011;37751;52.408;12.536;2024-03-25T11:15:55;2.92;;;1.00;;
51664;SDS011;37751;52.408;12.536;2024-03-25T11:18:23;5.47;;;4.00;;
51664;SDS011;37751;52.408;12.536;2024-03-25T11:21:00;2.73;;;1.17;;
51664;SDS011;37751;52.408;12.536;2024-03-25T11:23:37;3.00;;;1.20;;
51664;SDS011;37751;52.408;12.536;2024-03-25T11:26:16;2.50;;;0.93;;
51664;SDS011;37751;52.408;12.536;2024-03-25T11:28:45;1.97;;;1.53;;
51664;SDS011;37751;52.408;12.536;2024-03-25T11:31:12;1.10;;;0.80;;
51664;SDS011;37751;52.408;12.536;2024-03-25T11:33:40;5.47;;;1.63;;
51664;SDS011;37751;52.408;12.536;2024-03-25T11:36:07;2.67;;;1.13;;
51664;SDS011;37751;52.408;12.536;2024-03-25T11:38:38;2.97;;;1.27;;
51664;SDS011;37751;52.408;12.536;2024-03-25T11:41:06;0.73;;;0.63;;
51664;SDS011;37751;52.408;12.536;2024-03-25T11:43:33;3.20;;;1.50;;
51664;SDS011;37751;52.408;12.536;2024-03-25T11:46:02;2.20;;;1.10;;
51664;SDS011;37751;52.408;12.536;2024-03-25T11:48:29;5.43;;;1.52;;
51664;SDS011;37751;52.408;12.536;2024-03-25T11:50:56;4.30;;;1.23;;
51664;SDS011;37751;52.408;12.536;2024-03-25T11:53:23;5.15;;;1.20;;
51664;SDS011;37751;52.408;12.536;2024-03-25T11:55:52;4.95;;;1.50;;
51664;SDS011;37751;52.408;12.536;2024-03-25T11:58:19;2.38;;;1.10;;
51664;SDS011;37751;52.408;12.536;2024-03-25T12:00:47;1.00;;;0.68;;
51664;SDS011;37751;52.408;12.536;2024-03-25T12:03:15;1.33;;;0.68;;
51664;SDS011;37751;52.408;12.536;2024-03-25T12:05:42;4.82;;;0.82;;
51664;SDS011;37751;52.408;12.536;2024-03-25T12:08:09;1.92;;;0.77;;
51664;SDS011;37751;52.408;12.536;2024-03-25T12:10:37;6.30;;;0.90;;
51664;SDS011;37751;52.408;12.536;2024-03-25T12:13:25;4.47;;;0.77;;
51664;SDS011;37751;52.408;12.536;2024-03-25T12:15:52;1.55;;;0.68;;
51664;SDS011;37751;52.408;12.536;2024-03-25T12:18:19;5.50;;;0.90;;
51664;SDS011;37751;52.408;12.536;2024-03-25T12:20:47;4.07;;;0.70;;
51664;SDS011;37751;52.408;12.536;2024-03-25T12:23:14;5.82;;;0.93;;
51664;SDS011;37751;52.408;12.536;2024-03-25T12:25:47;2.05;;;0.57;;
51664;SDS011;37751;52.408;12.536;2024-03-25T12:28:15;6.53;;;1.02;;
51664;SDS011;37751;52.408;12.536;2024-03-25T12:30:51;1.15;;;0.68;;
51664;SDS011;37751;52.408;12.536;2024-03-25T12:33:20;2.65;;;1.00;;
51664;SDS011;37751;52.408;12.536;2024-03-25T12:35:48;3.13;;;0.90;;
51664;SDS011;37751;52.408;12.536;2024-03-25T12:38:23;4.50;;;1.17;;
51664;SDS011;37751;52.408;12.536;2024-03-25T12:40:51;3.10;;;0.70;;
51664;SDS011;37751;52.408;12.536;2024-03-25T12:43:30;1.13;;;0.70;;
51664;SDS011;37751;52.408;12.536;2024-03-25T12:46:01;6.53;;;1.87;;
51664;SDS011;37751;52.408;12.536;2024-03-25T12:48:28;2.07;;;0.70;;
51664;SDS011;37751;52.408;12.536;2024-03-25T12:50:55;3.27;;;1.20;;
51664;SDS011;37751;52.408;12.536;2024-03-25T12:53:22;1.93;;;0.90;;
51664;SDS011;37751;52.408;12.536;2024-03-25T12:55:49;1.40;;;0.60;;
51664;SDS011;37751;52.408;12.536;2024-03-25T12:58:16;1.77;;;0.90;;
51664;SDS011;37751;52.408;12.536;2024-03-25T13:00:43;2.47;;;1.00;;
51664;SDS011;37751;52.408;12.536;2024-03-25T13:03:12;1.93;;;0.67;;
51664;SDS011;37751;52.408;12.536;2024-03-25T13:05:42;3.07;;;1.10;;
51664;SDS011;37751;52.408;12.536;2024-03-25T13:08:09;2.23;;;0.90;;
51664;SDS011;37751;52.408;12.536;2024-03-25T13:10:36;1.02;;;0.47;;
51664;SDS011;37751;52.408;12.536;2024-03-25T13:13:03;3.20;;;0.68;;
51664;SDS011;37751;52.408;12.536;2024-03-25T13:15:31;0.80;;;0.55;;
51664;SDS011;37751;52.408;12.536;2024-03-25T13:17:57;1.10;;;0.53;;
51664;SDS011;37751;52.408;12.536;2024-03-25T13:20:27;1.42;;;0.60;;
51664;SDS011;37751;52.408;12.536;2024-03-25T13:22:54;2.05;;;0.60;;
51664;SDS011;37751;52.408;12.536;2024-03-25T13:25:21;1.75;;;0.77;;
51664;SDS011;37751;52.408;12.536;2024-03-25T13:27:48;2.45;;;1.00;;
51664;SDS011;37751;52.408;12.536;2024-03-25T13:30:16;3.88;;;1.05;;
51664;SDS011;37751;52.408;12.536;2024-03-25T13:32:42;3.17;;;0.85;;
51664;SDS011;37751;52.408;12.536;2024-03-25T13:35:09;3.33;;;1.37;;
51664;SDS011;37751;52.408;12.536;2024-03-25T13:37:39;1.30;;;0.82;;
51664;SDS011;37751;52.408;12.536;2024-03-25T13:40:06;10.87;;;1.50;;
51664;SDS011;37751;52.408;12.536;2024-03-25T13:42:37;3.77;;;1.10;;
51664;SDS011;37751;52.408;12.536;2024-03-25T13:45:04;7.03;;;1.90;;
51664;SDS011;37751;52.408;12.536;2024-03-25T13:47:33;5.43;;;1.50;;
51664;SDS011;37751;52.408;12.536;2024-03-25T13:50:00;4.57;;;1.30;;
51664;SDS011;37751;52.408;12.536;2024-03-25T13:52:27;2.03;;;1.20;;
51664;SDS011;37751;52.408;12.536;2024-03-25T13:54:57;1.83;;;0.90;;
51664;SDS011;37751;52.408;12.536;2024-03-25T13:57:24;2.85;;;0.80;;
51664;SDS011;37751;52.408;12.536;2024-03-25T13:59:51;2.77;;;1.03;;
51664;SDS011;37751;52.408;12.536;2024-03-25T14:02:18;2.40;;;1.30;;
51664;SDS011;37751;52.408;12.536;2024-03-25T14:04:45;3.70;;;0.93;;
51664;SDS011;37751;52.408;12.536;2024-03-25T14:07:12;1.75;;;0.77;;
51664;SDS011;37751;52.408;12.536;2024-03-25T14:09:38;7.25;;;1.55;;
51664;SDS011;37751;52.408;12.536;2024-03-25T14:12:08;2.92;;;1.23;;
51664;SDS011;37751;52.408;12.536;2024-03-25T14:14:35;3.60;;;0.90;;
51664;SDS011;37751;52.408;12.536;2024-03-25T14:17:02;5.95;;;1.50;;
51664;SDS011;37751;52.408;12.536;2024-03-25T14:19:30;7.03;;;1.23;;
51664;SDS011;37751;52.408;12.536;2024-03-25T14:21:57;3.42;;;1.30;;
51664;SDS011;37751;52.408;12.536;2024-03-25T14:24:25;1.63;;;0.90;;
51664;SDS011;37751;52.408;12.536;2024-03-25T14:26:55;3.58;;;1.50;;
51664;SDS011;37751;52.408;12.536;2024-03-25T14:29:25;6.18;;;1.90;;
51664;SDS011;37751;52.408;12.536;2024-03-25T14:31:54;4.45;;;1.50;;
51664;SDS011;37751;52.408;12.536;2024-03-25T14:34:21;5.15;;;1.80;;
51664;SDS011;37751;52.408;12.536;2024-03-25T14:36:52;6.80;;;1.77;;
51664;SDS011;37751;52.408;12.536;2024-03-25T14:39:20;6.75;;;1.33;;
51664;SDS011;37751;52.408;12.536;2024-03-25T14:41:47;8.90;;;1.90;;
51664;SDS011;37751;52.408;12.536;2024-03-25T14:44:14;7.85;;;1.60;;
51664;SDS011;37751;52.408;12.536;2024-03-25T14:46:44;6.53;;;1.95;;